Time;durP1;ratioP1;P1;durP2;ratioP2;P2;SDS_P1;SDS_P2;PMS_P1;PMS_P2;Temp;Humidity;BMP_temperature;BMP_pressure;BME280_temperature;BME280_humidity;BME280_pressure;Samples;Min_cycle;Max_cycle;Signal;HPM_P1;HPM_P2
2023/07/05 00:03:08;;;;;;;;;;;;;;;16.9;64.80957;100452.2;;;;-66
2023/07/05 00:08:08;;;;;;;;;;;;;;;16.86;65.96582;100442.9;;;;-65
2023/07/05 00:13:08;;;;;;;;;;;;;;;16.8;66.3291;100428.2;;;;-67
2023/07/05 00:14:04;;;;;;;0.2;0.1;;;;;;;;;;;;;-65
2023/07/05 00:18:07;;;;;;;;;;;;;;;16.8;66.02344;100435.6;;;;-67
2023/07/05 00:23:07;;;;;;;;;;;;;;;16.74;66.36328;100427.3;;;;-66
2023/07/05 00:28:08;;;;;;;;;;;;;;;16.71;66.66504;100407.6;;;;-66
2023/07/05 00:33:07;;;;;;;;;;;;;;;16.68;66.99902;100384.7;;;;-66
2023/07/05 00:38:08;;;;;;;;;;;;;;;16.61;67.21289;100376.9;;;;-66
2023/07/05 00:43:08;;;;;;;;;;;;;;;16.61;67.4043;100363.2;;;;-66
2023/07/05 00:44:07;;;;;;;0.2;0.1;;;;;;;;;;;;;-67
2023/07/05 00:48:08;;;;;;;;;;;;;;;16.59;67.09766;100317;;;;-67
2023/07/05 00:53:08;;;;;;;;;;;;;;;16.52;68.13281;100320;;;;-66
2023/07/05 00:58:08;;;;;;;;;;;;;;;16.54;68.49512;100308.5;;;;-68
2023/07/05 01:03:10;;;;;;;;;;;;;;;16.49;70.35645;100275.5;;;;-66
2023/07/05 01:08:09;;;;;;;;;;;;;;;16.46;70.00293;100233.6;;;;-66
2023/07/05 01:13:10;;;;;;;;;;;;;;;16.45;69.86719;100207.9;;;;-67
2023/07/05 01:14:13;;;;;;;0.3;0.1;;;;;;;;;;;;;-67
2023/07/05 01:18:12;;;;;;;;;;;;;;;16.41;71.48047;100181.3;;;;-66
2023/07/05 01:23:29;;;;;;;;;;;;;;;16.42;71.41309;100174.7;;;;-67
2023/07/05 01:28:19;;;;;;;;;;;;;;;16.4;72.39941;100193.2;;;;-68
2023/07/05 01:33:09;;;;;;;;;;;;;;;16.39;73.33203;100191.8;;;;-68
2023/07/05 01:38:08;;;;;;;;;;;;;;;16.39;75.58887;100171.7;;;;-67
2023/07/05 01:43:10;;;;;;;;;;;;;;;16.41;75.16504;100150.5;;;;-67
2023/07/05 01:44:13;;;;;;;0.2;0.1;;;;;;;;;;;;;-68
2023/07/05 01:48:12;;;;;;;;;;;;;;;16.42;75.44727;100141.2;;;;-68
2023/07/05 01:53:13;;;;;;;;;;;;;;;16.43;76.20313;100129.2;;;;-69
2023/07/05 01:58:13;;;;;;;;;;;;;;;16.44;76.70801;100134.5;;;;-68
2023/07/05 02:03:11;;;;;;;;;;;;;;;16.32;80.96289;100113.6;;;;-69
2023/07/05 02:08:08;;;;;;;;;;;;;;;16.39;79.78613;100112.7;;;;-68
2023/07/05 02:13:10;;;;;;;;;;;;;;;16.43;79.81641;100099.6;;;;-68
2023/07/05 02:14:14;;;;;;;0.2;0;;;;;;;;;;;;;-67
2023/07/05 02:18:08;;;;;;;;;;;;;;;16.47;79.11621;100113.3;;;;-68
2023/07/05 02:23:07;;;;;;;;;;;;;;;16.45;79.41602;100110.9;;;;-69
2023/07/05 02:28:08;;;;;;;;;;;;;;;16.43;78.67188;100100.7;;;;-68
2023/07/05 02:33:07;;;;;;;;;;;;;;;16.44;80.74902;100100.5;;;;-68
2023/07/05 02:38:08;;;;;;;;;;;;;;;16.31;80.96094;100099;;;;-67
2023/07/05 02:43:08;;;;;;;;;;;;;;;16.34;79.06934;100095.3;;;;-67
2023/07/05 02:44:16;;;;;;;0.2;0.1;;;;;;;;;;;;;-66
2023/07/05 02:48:08;;;;;;;;;;;;;;;16.26;79.37012;100082;;;;-66
2023/07/05 02:53:09;;;;;;;;;;;;;;;16.16;78.28711;100079;;;;-68
2023/07/05 02:58:08;;;;;;;;;;;;;;;16.04;78.17676;100082;;;;-66
2023/07/05 03:03:08;;;;;;;;;;;;;;;15.96;78.13965;100076.7;;;;-67
2023/07/05 03:08:09;;;;;;;;;;;;;;;15.98;76.9541;100081.5;;;;-67
2023/07/05 03:13:08;;;;;;;;;;;;;;;15.87;78.78516;100086.4;;;;-67
2023/07/05 03:14:22;;;;;;;0.2;0;;;;;;;;;;;;;-67
2023/07/05 03:18:08;;;;;;;;;;;;;;;15.83;78.7002;100080.9;;;;-68
2023/07/05 03:23:08;;;;;;;;;;;;;;;15.6;81.16602;100076.7;;;;-67
2023/07/05 03:28:08;;;;;;;;;;;;;;;15.6;81.47852;100063.1;;;;-68
2023/07/05 03:33:08;;;;;;;;;;;;;;;15.5;82.11133;100056.5;;;;-68
2023/07/05 03:38:08;;;;;;;;;;;;;;;15.43;82.15332;100057.8;;;;-66
2023/07/05 03:43:07;;;;;;;;;;;;;;;15.46;80.97266;100046.1;;;;-67
2023/07/05 03:44:22;;;;;;;0.2;0.1;;;;;;;;;;;;;-67
2023/07/05 03:48:08;;;;;;;;;;;;;;;15.34;81.39844;100054.7;;;;-66
2023/07/05 03:53:07;;;;;;;;;;;;;;;15.29;81.0752;100048.7;;;;-67
2023/07/05 03:58:07;;;;;;;;;;;;;;;15.24;80.92188;100049.2;;;;-67
2023/07/05 04:03:08;;;;;;;;;;;;;;;15.08;82.94727;100036.1;;;;-66
2023/07/05 04:08:08;;;;;;;;;;;;;;;15.14;82.24414;100019.7;;;;-67
2023/07/05 04:13:08;;;;;;;;;;;;;;;15.08;82.25684;100023.3;;;;-66
2023/07/05 04:14:23;;;;;;;0.2;0.1;;;;;;;;;;;;;-66
2023/07/05 04:18:08;;;;;;;;;;;;;;;15.01;82.43359;100019.4;;;;-65
2023/07/05 04:23:08;;;;;;;;;;;;;;;14.99;82.53027;100016.1;;;;-67
2023/07/05 04:28:08;;;;;;;;;;;;;;;14.99;82.71973;100006.9;;;;-66
2023/07/05 04:33:07;;;;;;;;;;;;;;;14.95;82.77832;100024.7;;;;-68
2023/07/05 04:38:08;;;;;;;;;;;;;;;14.89;83.62793;100022.4;;;;-67
2023/07/05 04:43:08;;;;;;;;;;;;;;;14.87;83.35645;100024.3;;;;-67
2023/07/05 04:44:26;;;;;;;0.2;0.1;;;;;;;;;;;;;-68
2023/07/05 04:48:08;;;;;;;;;;;;;;;14.89;83.32617;99997.29;;;;-67
2023/07/05 04:53:08;;;;;;;;;;;;;;;14.93;82.4834;99999.63;;;;-67
2023/07/05 04:58:08;;;;;;;;;;;;;;;14.89;83.24902;99994.11;;;;-67
2023/07/05 05:03:07;;;;;;;;;;;;;;;14.87;83.07715;99997.52;;;;-67
2023/07/05 05:08:08;;;;;;;;;;;;;;;14.87;82.99805;99986.07;;;;-66
2023/07/05 05:13:07;;;;;;;;;;;;;;;14.81;82.68555;99998.56;;;;-67
2023/07/05 05:14:28;;;;;;;0.2;0;;;;;;;;;;;;;-68
2023/07/05 05:18:10;;;;;;;;;;;;;;;14.74;83.20801;99987.27;;;;-66
2023/07/05 05:23:08;;;;;;;;;;;;;;;14.68;82.85156;99976.67;;;;-66
2023/07/05 05:28:08;;;;;;;;;;;;;;;14.61;83.02832;99959.7;;;;-65
2023/07/05 05:33:08;;;;;;;;;;;;;;;14.54;83.24902;99958.55;;;;-66
2023/07/05 05:38:08;;;;;;;;;;;;;;;14.45;82.71875;99941.92;;;;-67
2023/07/05 05:43:07;;;;;;;;;;;;;;;14.36;83.43945;99929.16;;;;-66
2023/07/05 05:44:30;;;;;;;0.2;0;;;;;;;;;;;;;-66
2023/07/05 05:48:08;;;;;;;;;;;;;;;14.16;82.6748;99928.01;;;;-67
2023/07/05 05:53:07;;;;;;;;;;;;;;;14.1;81.60547;99906.88;;;;-66
2023/07/05 05:58:08;;;;;;;;;;;;;;;13.85;82.1709;99892.22;;;;-68
2023/07/05 06:03:08;;;;;;;;;;;;;;;13.74;82.82129;99856.48;;;;-68
2023/07/05 06:08:08;;;;;;;;;;;;;;;13.33;84.62109;99821.67;;;;-70
2023/07/05 06:13:09;;;;;;;;;;;;;;;13.14;84.27637;99780.88;;;;-69
2023/07/05 06:14:32;;;;;;;0.2;0;;;;;;;;;;;;;-68
2023/07/05 06:18:10;;;;;;;;;;;;;;;13.1;85.03418;99699.88;;;;-75
2023/07/05 06:23:07;;;;;;;;;;;;;;;12.86;87.16309;99615.44;;;;-73
2023/07/05 06:28:10;;;;;;;;;;;;;;;12.7;88.21973;99555.8;;;;-73
2023/07/05 06:33:08;;;;;;;;;;;;;;;12.42;90.75684;99565.58;;;;-74
2023/07/05 06:38:10;;;;;;;;;;;;;;;12.51;90.98535;99577.22;;;;-75
2023/07/05 06:43:07;;;;;;;;;;;;;;;12.51;93.5332;99511.27;;;;-74
2023/07/05 06:44:34;;;;;;;0.2;0;;;;;;;;;;;;;-75
2023/07/05 06:48:09;;;;;;;;;;;;;;;12.75;92.6748;99523.81;;;;-73
2023/07/05 06:53:07;;;;;;;;;;;;;;;12.94;91.70605;99551.38;;;;-75
2023/07/05 06:58:07;;;;;;;;;;;;;;;12.97;92.93359;99510.48;;;;-75
2023/07/05 07:04:06;;;;;;;;;;;;;;;12.9;95.10059;99595.57;;;;-73
2023/07/05 16:27:51;;;;;;;;;;;;;;;17.19;84.54492;101277.1;;;;-73
2023/07/05 16:32:51;;;;;;;;;;;;;;;17.15;85.38965;101286;;;;-76
2023/07/05 16:37:53;;;;;;;;;;;;;;;17.12;84.53027;101292.2;;;;-73
2023/07/05 16:42:52;;;;;;;;;;;;;;;17.04;82.91211;101287;;;;-70
2023/07/05 16:47:51;;;;;;;;;;;;;;;17.06;82.82617;101294;;;;-70
2023/07/05 16:51:06;;;;;;;0.2;0.1;;;;;;;;;;;;;-70
2023/07/05 16:52:52;;;;;;;;;;;;;;;17.05;82.63379;101298.6;;;;-71
2023/07/05 16:57:51;;;;;;;;;;;;;;;17.06;83.20801;101297.7;;;;-70
2023/07/05 17:02:51;;;;;;;;;;;;;;;17.07;83.38867;101312.4;;;;-70
2023/07/05 17:07:51;;;;;;;;;;;;;;;17.04;82.50879;101315.4;;;;-71
2023/07/05 17:12:51;;;;;;;;;;;;;;;17.03;82.79883;101317.6;;;;-70
2023/07/05 17:17:51;;;;;;;;;;;;;;;17.01;82.77051;101313.6;;;;-71
2023/07/05 17:21:09;;;;;;;0.2;0;;;;;;;;;;;;;-72
2023/07/05 17:22:51;;;;;;;;;;;;;;;16.99;82.90234;101321.5;;;;-72
2023/07/05 17:27:52;;;;;;;;;;;;;;;16.96;82.50391;101322.4;;;;-71
2023/07/05 17:32:51;;;;;;;;;;;;;;;16.89;82.77344;101322.3;;;;-70
2023/07/05 17:37:51;;;;;;;;;;;;;;;16.88;82.70215;101331.6;;;;-70
2023/07/05 17:42:51;;;;;;;;;;;;;;;16.87;82.76758;101339.5;;;;-72
2023/07/05 17:47:51;;;;;;;;;;;;;;;16.84;82.81738;101347.1;;;;-71
2023/07/05 17:51:12;;;;;;;0.2;0;;;;;;;;;;;;;-76
2023/07/05 17:52:51;;;;;;;;;;;;;;;16.76;82.80371;101345.2;;;;-70
2023/07/05 17:57:53;;;;;;;;;;;;;;;16.69;82.36426;101346.8;;;;-71
2023/07/05 18:02:51;;;;;;;;;;;;;;;16.63;82.30859;101356.3;;;;-70
2023/07/05 18:07:51;;;;;;;;;;;;;;;16.59;81.31348;101358.8;;;;-71
2023/07/05 18:12:51;;;;;;;;;;;;;;;16.57;81.93652;101368.8;;;;-70
2023/07/05 18:17:51;;;;;;;;;;;;;;;16.55;80.98145;101372.6;;;;-70
2023/07/05 18:21:16;;;;;;;0.2;0.1;;;;;;;;;;;;;-70
2023/07/05 18:22:51;;;;;;;;;;;;;;;16.54;81.40625;101380.1;;;;-71
2023/07/05 18:27:51;;;;;;;;;;;;;;;16.53;81.12402;101378.6;;;;-70
2023/07/05 18:32:52;;;;;;;;;;;;;;;16.61;81.50977;101386.3;;;;-71
2023/07/05 18:37:51;;;;;;;;;;;;;;;16.68;80.61426;101387;;;;-69
2023/07/05 18:42:51;;;;;;;;;;;;;;;16.71;80.94434;101390.6;;;;-72
2023/07/05 18:47:51;;;;;;;;;;;;;;;16.74;80.20898;101388.2;;;;-72
2023/07/05 18:51:18;;;;;;;0.3;0.1;;;;;;;;;;;;;-71
2023/07/05 18:52:51;;;;;;;;;;;;;;;16.77;79.76367;101394.8;;;;-71
2023/07/05 18:57:51;;;;;;;;;;;;;;;16.72;80.60742;101391.8;;;;-71
2023/07/05 19:02:51;;;;;;;;;;;;;;;16.64;80.73926;101391.7;;;;-71
2023/07/05 19:07:51;;;;;;;;;;;;;;;16.55;80.78906;101401.8;;;;-72
2023/07/05 19:12:51;;;;;;;;;;;;;;;16.48;80.55371;101411.9;;;;-72
2023/07/05 19:17:51;;;;;;;;;;;;;;;16.37;80.91504;101414.8;;;;-73
2023/07/05 19:21:21;;;;;;;0.2;0;;;;;;;;;;;;;-71
2023/07/05 19:22:51;;;;;;;;;;;;;;;16.29;80.56348;101415.3;;;;-70
2023/07/05 19:27:51;;;;;;;;;;;;;;;16.22;80.6416;101420.4;;;;-71
2023/07/05 19:36:16;;;;;;;;;;;;;;;16.14;79.82031;101425.3;;;;-71
2023/07/05 19:41:16;;;;;;;;;;;;;;;16.1;79.21973;101426.8;;;;-71
2023/07/05 19:46:16;;;;;;;;;;;;;;;16.05;79.06348;101430.4;;;;-71
2023/07/05 19:51:15;;;;;;;;;;;;;;;15.98;78.80566;101433;;;;-71
2023/07/05 19:51:28;;;;;;;0.3;0.1;;;;;;;;;;;;;-71
2023/07/05 19:56:17;;;;;;;;;;;;;;;15.93;78.88574;101435;;;;-71
2023/07/05 20:01:16;;;;;;;;;;;;;;;15.89;79.22656;101437.3;;;;-72
2023/07/05 20:06:18;;;;;;;;;;;;;;;15.83;78.94629;101443.8;;;;-69
2023/07/05 20:11:18;;;;;;;;;;;;;;;15.79;79.12891;101445.8;;;;-72
2023/07/05 20:16:18;;;;;;;;;;;;;;;15.75;78.75293;101452.7;;;;-69
2023/07/05 20:21:16;;;;;;;;;;;;;;;15.71;79.41797;101458.7;;;;-71
2023/07/05 20:21:26;;;;;;;0.4;0.2;;;;;;;;;;;;;-71
2023/07/05 20:26:16;;;;;;;;;;;;;;;15.67;79.09863;101465.5;;;;-70
2023/07/05 20:31:17;;;;;;;;;;;;;;;15.61;79.36621;101465.1;;;;-71
2023/07/05 20:36:15;;;;;;;;;;;;;;;15.56;79.22461;101466.9;;;;-71
2023/07/05 20:41:15;;;;;;;;;;;;;;;15.5;79.83984;101463.7;;;;-71
2023/07/05 20:46:15;;;;;;;;;;;;;;;15.48;80.01563;101451.5;;;;-69
2023/07/05 20:51:17;;;;;;;;;;;;;;;15.45;80.03125;101452.8;;;;-71
2023/07/05 20:51:31;;;;;;;0.2;0;;;;;;;;;;;;;-72
2023/07/05 20:56:17;;;;;;;;;;;;;;;15.42;80.17188;101454;;;;-71
2023/07/05 21:01:19;;;;;;;;;;;;;;;15.4;80.42383;101459.3;;;;-70
2023/07/05 21:06:17;;;;;;;;;;;;;;;15.39;80.43359;101461.4;;;;-71
2023/07/05 21:11:15;;;;;;;;;;;;;;;15.35;80.87402;101453.3;;;;-71
2023/07/05 21:16:18;;;;;;;;;;;;;;;15.32;81.02441;101456.5;;;;-69
2023/07/05 21:21:15;;;;;;;;;;;;;;;15.26;80.91504;101466.4;;;;-69
2023/07/05 21:21:31;;;;;;;0.2;0.1;;;;;;;;;;;;;-71
2023/07/05 21:26:15;;;;;;;;;;;;;;;15.18;81.54883;101475;;;;-71
2023/07/05 21:31:16;;;;;;;;;;;;;;;15.07;81.64941;101476.6;;;;-71
2023/07/05 21:36:16;;;;;;;;;;;;;;;14.99;81.50293;101477.3;;;;-72
2023/07/05 21:41:17;;;;;;;;;;;;;;;14.87;81.19043;101483.3;;;;-71
2023/07/05 21:46:15;;;;;;;;;;;;;;;14.81;81.50195;101488.4;;;;-70
2023/07/05 21:51:15;;;;;;;;;;;;;;;14.67;81.56445;101491.7;;;;-70
2023/07/05 21:51:34;;;;;;;0.2;0;;;;;;;;;;;;;-74
2023/07/05 21:56:15;;;;;;;;;;;;;;;14.56;81.48828;101497.2;;;;-71
2023/07/05 22:01:17;;;;;;;;;;;;;;;14.49;81.53125;101503.8;;;;-71
2023/07/05 22:06:18;;;;;;;;;;;;;;;14.4;81.97363;101507.1;;;;-72
2023/07/05 22:11:15;;;;;;;;;;;;;;;14.31;81.26367;101515;;;;-71
2023/07/05 22:16:16;;;;;;;;;;;;;;;14.19;81.64453;101516;;;;-71
2023/07/05 22:21:17;;;;;;;;;;;;;;;14.12;81.33008;101520.7;;;;-71
2023/07/05 22:21:36;;;;;;;0.2;0;;;;;;;;;;;;;-70
2023/07/05 22:26:16;;;;;;;;;;;;;;;14.04;81.57129;101521.8;;;;-69
2023/07/05 22:31:15;;;;;;;;;;;;;;;13.98;82.41992;101533.3;;;;-70
2023/07/05 22:36:16;;;;;;;;;;;;;;;13.9;81.75781;101534.4;;;;-71
2023/07/05 22:41:16;;;;;;;;;;;;;;;13.85;81.77051;101537.7;;;;-70
2023/07/05 22:46:19;;;;;;;;;;;;;;;13.81;82.28711;101538.6;;;;-68
2023/07/05 22:51:15;;;;;;;;;;;;;;;13.76;81.86426;101542.5;;;;-71
2023/07/05 22:51:38;;;;;;;0.2;0.1;;;;;;;;;;;;;-70
2023/07/05 22:56:16;;;;;;;;;;;;;;;13.67;81.88281;101537.3;;;;-70
2023/07/05 23:01:18;;;;;;;;;;;;;;;13.63;82.32031;101539.6;;;;-71
2023/07/05 23:06:16;;;;;;;;;;;;;;;13.57;82.10742;101536.3;;;;-71
2023/07/05 23:11:16;;;;;;;;;;;;;;;13.5;82.06055;101542.8;;;;-71
2023/07/05 23:16:17;;;;;;;;;;;;;;;13.47;82.24609;101547.4;;;;-71
2023/07/05 23:21:16;;;;;;;;;;;;;;;13.41;82.16602;101548.2;;;;-71
2023/07/05 23:21:40;;;;;;;0.2;0.1;;;;;;;;;;;;;-71
2023/07/05 23:26:17;;;;;;;;;;;;;;;13.39;82.33105;101546.2;;;;-70
2023/07/05 23:31:20;;;;;;;;;;;;;;;13.33;83.40039;101545.7;;;;-69
2023/07/05 23:36:16;;;;;;;;;;;;;;;13.3;82.13672;101541.3;;;;-70
2023/07/05 23:41:15;;;;;;;;;;;;;;;13.27;82.84375;101535.6;;;;-70
2023/07/05 23:46:15;;;;;;;;;;;;;;;13.27;82.54297;101534.5;;;;-71
2023/07/05 23:51:15;;;;;;;;;;;;;;;13.26;82.81738;101533.5;;;;-70
2023/07/05 23:51:42;;;;;;;0.2;0.1;;;;;;;;;;;;;-70
2023/07/05 23:56:18;;;;;;;;;;;;;;;13.31;82.77246;101528.4;;;;-70
